Time;durP1;ratioP1;P1;durP2;ratioP2;P2;SDS_P1;SDS_P2;PMS_P1;PMS_P2;Temp;Humidity;BMP_temperature;BMP_pressure;BME280_temperature;BME280_humidity;BME280_pressure;Samples;Min_cycle;Max_cycle;Signal;HPM_P1;HPM_P2
2023/06/24 00:00:52;;;;;;;2.40;1.50;;;17.20;99.90;;;;;;5093783;28;20452;-82
2023/06/24 00:03:18;;;;;;;2.50;1.37;;;17.30;99.90;;;;;;5093652;28;20480;-83
2023/06/24 00:05:49;;;;;;;4.03;1.97;;;17.40;99.90;;;;;;5093472;28;20804;-82
2023/06/24 00:08:15;;;;;;;4.27;1.50;;;17.30;99.90;;;;;;5093681;28;20468;-83
2023/06/24 00:10:44;;;;;;;2.10;1.27;;;17.30;99.90;;;;;;5093667;28;20447;-82
2023/06/24 00:13:11;;;;;;;2.57;1.57;;;17.10;99.90;;;;;;5093674;28;20471;-82
2023/06/24 00:15:42;;;;;;;3.43;2.20;;;17.10;99.90;;;;;;5093206;28;21026;-83
2023/06/24 00:18:09;;;;;;;2.17;1.50;;;17.10;99.90;;;;;;5093364;28;20496;-82
2023/06/24 00:20:36;;;;;;;3.27;2.00;;;17.10;99.90;;;;;;5093575;28;20443;-82
2023/06/24 00:23:04;;;;;;;2.03;1.90;;;17.00;99.90;;;;;;5092951;28;20479;-82
2023/06/24 00:25:31;;;;;;;3.77;1.73;;;16.90;99.90;;;;;;5093209;28;20439;-82
2023/06/24 00:27:58;;;;;;;3.37;1.97;;;16.90;99.90;;;;;;5093364;28;20528;-82
2023/06/24 00:30:26;;;;;;;4.60;1.70;;;16.90;99.90;;;;;;5093451;28;20455;-82
2023/06/24 00:32:53;;;;;;;4.17;1.50;;;16.90;99.90;;;;;;5093415;28;20451;-82
2023/06/24 00:35:20;;;;;;;2.50;1.60;;;16.90;99.90;;;;;;5093352;28;20499;-82
2023/06/24 00:37:47;;;;;;;2.50;1.50;;;16.80;99.90;;;;;;5093234;28;20452;-82
2023/06/24 00:40:16;;;;;;;7.83;2.07;;;16.70;99.90;;;;;;5093344;28;20451;-82
2023/06/24 00:42:45;;;;;;;4.40;1.80;;;16.80;99.90;;;;;;5093309;28;20456;-82
2023/06/24 00:45:12;;;;;;;3.20;2.00;;;16.80;99.90;;;;;;5093310;28;20505;-82
2023/06/24 00:47:39;;;;;;;2.90;1.60;;;16.80;99.90;;;;;;5092886;28;20850;-82
2023/06/24 00:50:07;;;;;;;5.47;1.90;;;16.70;99.90;;;;;;5093268;28;20452;-83
2023/06/24 00:52:36;;;;;;;2.30;1.50;;;16.70;99.90;;;;;;5093228;28;20451;-82
2023/06/24 00:55:03;;;;;;;1.93;1.70;;;16.70;99.90;;;;;;5093169;28;20480;-82
2023/06/24 00:57:32;;;;;;;3.60;1.90;;;16.70;99.90;;;;;;5092885;28;20819;-82
2023/06/24 01:00:02;;;;;;;5.57;2.10;;;16.70;99.90;;;;;;5093150;28;20467;-82
2023/06/24 01:02:32;;;;;;;1.83;1.37;;;16.60;99.90;;;;;;5093155;28;20428;-82
2023/06/24 01:04:59;;;;;;;1.83;1.20;;;16.70;99.90;;;;;;5092808;28;20448;-82
2023/06/24 01:07:25;;;;;;;2.17;1.77;;;16.70;99.90;;;;;;5093031;28;20468;-82
2023/06/24 01:09:52;;;;;;;5.93;2.23;;;16.60;99.90;;;;;;5092763;28;20931;-82
2023/06/24 01:12:19;;;;;;;3.30;1.50;;;16.50;99.90;;;;;;5092736;28;20943;-83
2023/06/24 01:14:47;;;;;;;3.13;1.87;;;16.50;99.90;;;;;;5092983;28;20443;-82
2023/06/24 01:17:17;;;;;;;2.33;1.97;;;16.50;99.90;;;;;;5092966;28;20475;-82
2023/06/24 01:20:03;;;;;;;2.30;1.90;;;16.50;99.90;;;;;;5092966;28;20535;-82
2023/06/24 01:23:01;;;;;;;4.33;2.20;;;16.40;99.90;;;;;;5092590;28;20480;-82
2023/06/24 01:25:43;;;;;;;2.50;1.50;;;16.40;99.90;;;;;;5092669;28;20931;-81
2023/06/24 01:28:49;;;;;;;2.57;1.53;;;16.30;99.90;;;;;;5092731;28;20471;-82
2023/06/24 01:31:35;;;;;;;2.83;2.17;;;16.30;99.90;;;;;;5066120;28;20478;-82
2023/06/24 01:34:08;;;;;;;5.73;2.70;;;16.20;99.90;;;;;;5096322;28;20424;-82
2023/06/24 01:36:38;;;;;;;2.50;1.87;;;16.20;99.90;;;;;;5096253;28;20503;-82
2023/06/24 01:39:09;;;;;;;2.93;2.07;;;16.20;99.90;;;;;;5096060;28;20993;-82
2023/06/24 01:41:42;;;;;;;2.90;2.43;;;16.20;99.90;;;;;;5096253;28;20412;-82
2023/06/24 01:44:13;;;;;;;5.13;2.23;;;16.20;99.90;;;;;;5096407;28;20436;-82
2023/06/24 01:46:42;;;;;;;3.90;2.20;;;16.10;99.90;;;;;;5096382;28;20428;-82
2023/06/24 01:49:14;;;;;;;1.97;1.67;;;16.10;99.90;;;;;;5096164;28;20464;-82
2023/06/24 01:51:42;;;;;;;1.70;1.40;;;16.10;99.90;;;;;;5096251;28;20439;-82
2023/06/24 01:54:18;;;;;;;4.23;1.93;;;16.00;99.90;;;;;;5096164;28;20444;-82
2023/06/24 01:56:47;;;;;;;2.60;2.00;;;16.10;99.90;;;;;;5095867;28;20551;-82
2023/06/24 01:59:17;;;;;;;1.90;1.70;;;16.10;99.90;;;;;;5096079;28;20448;-82
2023/06/24 02:01:46;;;;;;;1.50;1.40;;;16.00;99.90;;;;;;5096035;28;20944;-82
2023/06/24 02:04:14;;;;;;;4.23;2.13;;;16.10;99.90;;;;;;5095673;28;20972;-82
2023/06/24 02:06:42;;;;;;;3.27;2.03;;;16.10;99.90;;;;;;5095632;28;20950;-82
2023/06/24 02:09:10;;;;;;;3.30;2.20;;;16.10;99.90;;;;;;5095471;28;20468;-83
2023/06/24 02:11:39;;;;;;;2.03;1.27;;;16.00;99.90;;;;;;5095835;28;20789;-82
2023/06/24 02:14:07;;;;;;;2.83;1.90;;;15.90;99.90;;;;;;5095809;28;20450;-82
2023/06/24 02:16:36;;;;;;;1.67;1.57;;;15.90;99.90;;;;;;5095684;28;20471;-82
2023/06/24 02:19:05;;;;;;;2.50;1.70;;;15.90;99.90;;;;;;5095576;28;20467;-82
2023/06/24 02:21:32;;;;;;;1.50;1.40;;;15.80;99.90;;;;;;5095078;28;20477;-82
2023/06/24 02:24:00;;;;;;;2.03;1.60;;;15.80;99.90;;;;;;5095552;28;20444;-83
2023/06/24 02:26:27;;;;;;;2.30;1.90;;;15.70;99.90;;;;;;5095502;28;20444;-82
2023/06/24 02:28:55;;;;;;;2.83;1.50;;;15.80;99.90;;;;;;5095086;28;20465;-82
2023/06/24 02:31:22;;;;;;;2.70;1.87;;;15.70;99.90;;;;;;5095420;28;20451;-83
2023/06/24 02:33:49;;;;;;;3.13;1.70;;;15.70;99.90;;;;;;5095393;28;20451;-82
2023/06/24 02:36:17;;;;;;;1.70;1.50;;;15.70;99.90;;;;;;5094931;28;20491;-82
2023/06/24 02:38:44;;;;;;;2.30;1.97;;;15.60;99.90;;;;;;5095221;28;20467;-82
2023/06/24 02:41:11;;;;;;;2.80;2.10;;;15.60;99.90;;;;;;5095217;28;20444;-82
2023/06/24 02:43:38;;;;;;;1.83;1.73;;;15.60;99.90;;;;;;5095198;28;20452;-82
2023/06/24 02:46:06;;;;;;;3.93;2.10;;;15.60;99.90;;;;;;5094833;28;20446;-82
2023/06/24 02:48:35;;;;;;;2.27;1.70;;;15.60;99.90;;;;;;5095000;28;20463;-82
2023/06/24 02:51:04;;;;;;;6.53;2.60;;;15.60;99.90;;;;;;5094743;28;20942;-82
2023/06/24 02:53:32;;;;;;;3.23;1.90;;;15.50;99.90;;;;;;5094711;28;20962;-82
2023/06/24 02:56:00;;;;;;;2.83;2.17;;;15.50;99.90;;;;;;5094848;28;20483;-82
2023/06/24 02:58:31;;;;;;;2.13;1.63;;;15.50;99.90;;;;;;5094815;28;20464;-82
2023/06/24 03:00:59;;;;;;;2.33;2.13;;;15.50;99.90;;;;;;5094923;28;20436;-82
2023/06/24 03:03:27;;;;;;;2.73;2.53;;;15.40;99.90;;;;;;5094793;28;20444;-82
2023/06/24 03:05:56;;;;;;;3.17;2.10;;;15.40;99.90;;;;;;5094736;28;20448;-82
2023/06/24 03:08:24;;;;;;;3.97;1.73;;;15.40;99.90;;;;;;5094314;28;21006;-82
2023/06/24 03:10:52;;;;;;;2.80;1.73;;;15.40;99.90;;;;;;5094631;28;20500;-82
2023/06/24 03:13:19;;;;;;;2.47;1.77;;;15.50;99.90;;;;;;5094626;28;20477;-82
2023/06/24 03:15:46;;;;;;;3.20;1.70;;;15.50;99.90;;;;;;5094208;28;20995;-82
2023/06/24 03:18:12;;;;;;;4.83;2.60;;;15.40;99.90;;;;;;5094429;28;20469;-82
2023/06/24 03:20:39;;;;;;;1.70;1.17;;;15.40;99.90;;;;;;5095201;28;20444;-82
2023/06/24 03:23:07;;;;;;;2.50;1.70;;;15.40;99.90;;;;;;5094062;28;20487;-82
2023/06/24 03:25:33;;;;;;;2.60;2.07;;;15.40;99.90;;;;;;5094066;28;20456;-82
2023/06/24 03:28:03;;;;;;;3.33;2.00;;;15.40;99.90;;;;;;5093960;28;20994;-82
2023/06/24 03:30:31;;;;;;;2.50;1.97;;;15.40;99.90;;;;;;5093983;28;20551;-82
2023/06/24 03:32:57;;;;;;;3.10;2.63;;;15.30;99.90;;;;;;5094283;28;20444;-82
2023/06/24 03:35:24;;;;;;;6.63;2.90;;;15.40;99.90;;;;;;5094293;28;20436;-82
2023/06/24 03:37:51;;;;;;;3.40;2.23;;;15.50;99.90;;;;;;5094008;28;20494;-82
2023/06/24 03:40:18;;;;;;;1.90;1.57;;;15.70;99.90;;;;;;5094166;28;20895;-82
2023/06/24 03:42:45;;;;;;;2.93;1.87;;;15.80;99.90;;;;;;5094104;28;20788;-82
2023/06/24 03:45:13;;;;;;;2.50;1.80;;;16.00;99.90;;;;;;5094789;28;20454;-82
2023/06/24 03:47:40;;;;;;;7.20;2.47;;;16.10;99.90;;;;;;5093644;28;20464;-82
2023/06/24 03:50:07;;;;;;;2.70;1.93;;;16.10;99.90;;;;;;5093994;28;20447;-82
2023/06/24 03:52:34;;;;;;;3.50;2.53;;;16.20;99.90;;;;;;5093243;28;20968;-82
2023/06/24 03:55:03;;;;;;;2.17;1.73;;;16.20;99.90;;;;;;5093880;28;20455;-82
2023/06/24 03:57:30;;;;;;;3.40;2.20;;;16.20;99.90;;;;;;5093369;28;20476;-82
2023/06/24 03:59:57;;;;;;;2.50;2.07;;;16.30;99.90;;;;;;5093817;28;20456;-82
2023/06/24 04:02:26;;;;;;;3.07;1.83;;;16.40;99.90;;;;;;5093562;28;20456;-82
2023/06/24 04:04:56;;;;;;;2.87;2.23;;;16.40;99.90;;;;;;5093696;28;20454;-82
2023/06/24 04:07:28;;;;;;;9.33;2.53;;;16.40;99.90;;;;;;5093651;28;20472;-82
2023/06/24 04:09:55;;;;;;;2.67;1.80;;;16.50;99.90;;;;;;5093729;28;20494;-82
2023/06/24 04:12:22;;;;;;;1.97;1.67;;;16.50;99.90;;;;;;5093648;28;20439;-82
2023/06/24 04:14:49;;;;;;;2.60;2.13;;;16.60;99.90;;;;;;5093630;28;20444;-82
2023/06/24 04:17:16;;;;;;;3.13;2.07;;;16.60;99.90;;;;;;5093453;28;20502;-82
2023/06/24 04:19:44;;;;;;;2.90;2.33;;;16.70;99.90;;;;;;5093218;28;20817;-82
2023/06/24 04:22:11;;;;;;;2.23;2.03;;;16.70;99.90;;;;;;5093153;28;20480;-82
2023/06/24 04:24:38;;;;;;;5.30;3.00;;;16.70;99.90;;;;;;5093608;28;20458;-82
2023/06/24 04:27:08;;;;;;;3.57;1.73;;;16.70;99.90;;;;;;5093405;28;20443;-82
2023/06/24 04:29:35;;;;;;;2.07;1.77;;;16.70;99.90;;;;;;5093510;28;20436;-82
2023/06/24 04:32:02;;;;;;;2.90;2.37;;;16.80;99.90;;;;;;5093458;28;20497;-82
2023/06/24 04:34:28;;;;;;;4.83;2.60;;;16.80;99.90;;;;;;5093432;28;20439;-82
2023/06/24 04:36:57;;;;;;;2.10;1.90;;;16.80;99.90;;;;;;5092936;28;21014;-82
2023/06/24 04:39:23;;;;;;;3.37;2.57;;;16.80;99.90;;;;;;5093352;28;20447;-82
2023/06/24 04:41:50;;;;;;;2.67;2.37;;;16.90;99.90;;;;;;5093338;28;20444;-83
2023/06/24 04:44:17;;;;;;;4.40;2.50;;;16.90;99.90;;;;;;5093303;28;20452;-83
2023/06/24 04:46:43;;;;;;;2.60;1.97;;;16.90;99.90;;;;;;5093293;28;20531;-82
2023/06/24 04:49:10;;;;;;;2.93;2.30;;;16.90;99.90;;;;;;5093202;28;20479;-82
2023/06/24 04:51:37;;;;;;;1.73;1.63;;;16.90;99.90;;;;;;5092974;28;20943;-82
2023/06/24 04:54:05;;;;;;;2.43;1.83;;;17.00;99.90;;;;;;5093236;28;20456;-82
2023/06/24 04:56:32;;;;;;;2.90;1.73;;;17.00;99.90;;;;;;5093121;28;20536;-82
2023/06/24 04:58:59;;;;;;;2.27;1.70;;;17.00;99.90;;;;;;5093154;28;20471;-82
2023/06/24 05:01:26;;;;;;;6.10;2.27;;;17.10;99.90;;;;;;5093178;28;20448;-83
2023/06/24 05:03:52;;;;;;;2.50;1.80;;;17.00;99.90;;;;;;5093552;28;20452;-82
2023/06/24 05:06:19;;;;;;;4.03;2.50;;;17.00;99.90;;;;;;5096781;28;20443;-82
2023/06/24 05:08:46;;;;;;;3.03;2.43;;;17.10;99.90;;;;;;5096645;28;20872;-82
2023/06/24 05:11:14;;;;;;;2.70;2.00;;;17.10;99.90;;;;;;5096991;28;20440;-82
2023/06/24 05:13:41;;;;;;;3.13;2.80;;;17.20;99.90;;;;;;5096964;28;20448;-82
2023/06/24 05:16:08;;;;;;;4.70;3.40;;;17.30;99.90;;;;;;5096830;28;20448;-82
2023/06/24 05:18:34;;;;;;;3.07;2.00;;;17.40;99.90;;;;;;5096788;28;20468;-82
2023/06/24 05:21:01;;;;;;;3.47;2.10;;;17.40;99.90;;;;;;5096230;28;20823;-82
2023/06/24 05:23:28;;;;;;;3.63;2.27;;;17.50;99.90;;;;;;5096818;28;20432;-82
2023/06/24 05:25:55;;;;;;;3.10;2.17;;;17.60;99.90;;;;;;5096445;28;20929;-82
2023/06/24 05:28:23;;;;;;;2.10;1.90;;;17.70;99.90;;;;;;5096593;28;20464;-82
2023/06/24 05:30:49;;;;;;;5.37;2.97;;;17.80;99.90;;;;;;5096660;28;20455;-82
2023/06/24 05:33:16;;;;;;;5.00;2.80;;;17.70;99.90;;;;;;5096615;28;20444;-82
2023/06/24 05:35:44;;;;;;;4.67;2.90;;;17.70;99.90;;;;;;5096590;28;20447;-82
2023/06/24 05:38:11;;;;;;;4.20;2.83;;;17.90;99.90;;;;;;5096358;28;20484;-82
2023/06/24 05:40:38;;;;;;;2.40;2.20;;;17.90;99.90;;;;;;5096460;28;20448;-82
2023/06/24 05:43:04;;;;;;;2.67;2.43;;;17.90;99.90;;;;;;5096063;28;20819;-82
2023/06/24 05:45:32;;;;;;;4.33;2.80;;;18.20;99.90;;;;;;5096038;28;20447;-83
2023/06/24 05:47:59;;;;;;;6.47;2.20;;;18.20;99.90;;;;;;5096260;28;20463;-82
2023/06/24 05:50:26;;;;;;;4.77;2.30;;;18.20;99.90;;;;;;5096251;28;20451;-82
2023/06/24 05:52:52;;;;;;;3.53;2.23;;;18.30;99.90;;;;;;5096199;28;20812;-82
2023/06/24 05:55:19;;;;;;;3.90;2.30;;;18.40;99.90;;;;;;5096147;28;20448;-82
2023/06/24 05:57:46;;;;;;;2.73;2.17;;;18.40;99.90;;;;;;5095695;28;20930;-83
2023/06/24 06:00:14;;;;;;;4.50;2.80;;;18.60;99.90;;;;;;5096064;28;20440;-82
2023/06/24 06:02:42;;;;;;;2.10;1.63;;;18.60;99.90;;;;;;5096010;28;20455;-82
2023/06/24 06:05:09;;;;;;;4.07;1.60;;;18.80;99.90;;;;;;5095642;28;20444;-82
2023/06/24 06:07:38;;;;;;;2.67;2.17;;;18.90;99.90;;;;;;5095532;28;20831;-82
2023/06/24 06:10:06;;;;;;;4.40;2.10;;;19.00;99.90;;;;;;5095872;28;20448;-83
2023/06/24 06:12:32;;;;;;;2.17;2.07;;;19.20;99.90;;;;;;5096053;28;20440;-83
2023/06/24 06:14:59;;;;;;;3.23;2.07;;;19.50;99.90;;;;;;5095143;28;20958;-82
2023/06/24 06:17:26;;;;;;;5.83;2.20;;;19.70;99.90;;;;;;5095765;28;20484;-83
2023/06/24 06:19:54;;;;;;;1.60;1.50;;;19.90;99.90;;;;;;5095700;28;20458;-83
2023/06/24 06:22:21;;;;;;;3.40;2.50;;;20.10;99.90;;;;;;5095222;28;20857;-82
2023/06/24 06:24:47;;;;;;;2.50;1.60;;;20.40;99.90;;;;;;5095578;28;20455;-83
2023/06/24 06:27:14;;;;;;;1.87;1.60;;;20.60;99.90;;;;;;5095502;28;20463;-83
2023/06/24 06:29:41;;;;;;;1.77;1.53;;;20.80;99.90;;;;;;5095517;28;20439;-83
2023/06/24 06:32:08;;;;;;;1.93;1.70;;;21.20;99.90;;;;;;5095496;28;20455;-83
2023/06/24 06:34:36;;;;;;;2.30;2.10;;;21.60;99.90;;;;;;5095374;28;20455;-83
2023/06/24 06:37:05;;;;;;;2.03;1.57;;;21.90;99.90;;;;;;5095223;28;20479;-83
2023/06/24 06:39:32;;;;;;;2.70;2.20;;;22.30;99.90;;;;;;5094977;28;20205;-83
2023/06/24 06:41:58;;;;;;;3.47;2.17;;;22.60;99.90;;;;;;5095299;28;20205;-83
2023/06/24 06:44:25;;;;;;;2.38;2.17;;;23.10;99.90;;;;;;5095289;28;20224;-83
2023/06/24 06:46:52;;;;;;;2.63;1.63;;;23.40;99.90;;;;;;5094783;28;20198;-83
2023/06/24 06:49:18;;;;;;;1.70;1.60;;;23.70;99.90;;;;;;5095095;28;20198;-83
2023/06/24 06:51:45;;;;;;;3.22;1.60;;;23.70;99.90;;;;;;5095076;28;20202;-84
2023/06/24 06:54:13;;;;;;;2.73;1.43;;;23.60;99.90;;;;;;5094899;28;20573;-83
2023/06/24 06:56:40;;;;;;;2.42;1.67;;;23.50;99.90;;;;;;5094901;28;20201;-83
2023/06/24 06:59:07;;;;;;;1.70;1.55;;;23.50;99.90;;;;;;5094578;28;20271;-83
2023/06/24 07:01:34;;;;;;;1.92;1.70;;;23.50;99.90;;;;;;5094673;28;20529;-83
2023/06/24 07:04:00;;;;;;;3.67;1.67;;;23.40;99.90;;;;;;5094843;28;20185;-83
2023/06/24 07:06:27;;;;;;;1.83;1.70;;;23.40;99.90;;;;;;5094842;28;20209;-83
2023/06/24 07:08:54;;;;;;;2.00;1.10;;;23.50;99.90;;;;;;5094740;28;20662;-83
2023/06/24 07:11:22;;;;;;;1.67;1.57;;;23.40;99.90;;;;;;5094521;28;20174;-83
2023/06/24 07:13:50;;;;;;;2.30;1.53;;;23.50;99.90;;;;;;5094685;28;20201;-83
2023/06/24 07:16:18;;;;;;;2.30;1.60;;;23.50;99.90;;;;;;5095457;28;20295;-83
2023/06/24 07:18:44;;;;;;;1.23;1.07;;;23.50;99.90;;;;;;5094090;28;20599;-83
2023/06/24 07:21:11;;;;;;;1.17;1.07;;;23.70;99.90;;;;;;5094314;28;20241;-83
2023/06/24 07:23:38;;;;;;;1.40;1.30;;;23.80;99.90;;;;;;5094226;28;20660;-83
2023/06/24 07:26:05;;;;;;;2.80;1.30;;;24.00;99.90;;;;;;5094305;28;20201;-83
2023/06/24 07:28:33;;;;;;;1.60;1.50;;;24.20;99.90;;;;;;5093788;28;20227;-83
2023/06/24 07:30:59;;;;;;;1.73;1.35;;;24.30;99.90;;;;;;5094388;28;20197;-83
2023/06/24 07:33:26;;;;;;;2.35;1.42;;;24.40;99.90;;;;;;5094316;28;20212;-83
2023/06/24 07:35:53;;;;;;;1.30;1.20;;;24.70;99.90;;;;;;5094232;28;20205;-83
2023/06/24 07:38:20;;;;;;;2.10;1.70;;;24.80;99.90;;;;;;5093764;28;20240;-83
2023/06/24 07:40:46;;;;;;;1.83;1.30;;;24.90;99.90;;;;;;5093817;28;20664;-83
2023/06/24 07:43:13;;;;;;;1.30;0.90;;;25.00;99.90;;;;;;5094113;28;20201;-83
2023/06/24 07:45:41;;;;;;;1.38;1.27;;;25.10;99.90;;;;;;5094082;28;20212;-83
2023/06/24 07:48:08;;;;;;;1.73;1.30;;;25.20;99.90;;;;;;5093994;28;20229;-83
2023/06/24 07:50:35;;;;;;;1.15;1.10;;;25.20;99.90;;;;;;5094014;28;20205;-83
2023/06/24 07:53:03;;;;;;;1.38;1.20;;;25.30;99.50;;;;;;5094007;28;20201;-83
2023/06/24 07:55:29;;;;;;;1.60;1.42;;;25.50;99.30;;;;;;5093932;28;20250;-83
2023/06/24 07:57:58;;;;;;;1.20;1.10;;;25.70;98.60;;;;;;5093642;28;20227;-83
2023/06/24 08:00:25;;;;;;;1.58;1.35;;;25.80;98.00;;;;;;5093713;28;20197;-83
2023/06/24 08:02:53;;;;;;;2.42;1.50;;;25.90;98.10;;;;;;5093764;28;20201;-83
2023/06/24 08:05:20;;;;;;;1.20;1.10;;;26.20;97.50;;;;;;5093656;28;20200;-83
2023/06/24 08:07:47;;;;;;;1.30;1.20;;;26.50;96.80;;;;;;5093252;28;20247;-82
2023/06/24 08:10:14;;;;;;;2.92;1.48;;;26.50;95.30;;;;;;5093554;28;20201;-82
2023/06/24 08:12:40;;;;;;;2.13;1.48;;;26.70;95.40;;;;;;5093588;28;20208;-83
2023/06/24 08:15:08;;;;;;;2.05;1.40;;;27.30;95.80;;;;;;5093667;28;20562;-83
2023/06/24 08:17:35;;;;;;;1.67;1.40;;;27.90;94.10;;;;;;5093149;28;20598;-83
2023/06/24 08:20:04;;;;;;;2.08;1.38;;;28.50;93.50;;;;;;5093299;28;20248;-82
2023/06/24 08:22:31;;;;;;;1.30;1.20;;;29.30;92.20;;;;;;5093040;28;20250;-82
2023/06/24 08:24:59;;;;;;;1.58;1.48;;;30.10;88.70;;;;;;5093533;28;20211;-82
2023/06/24 08:27:25;;;;;;;1.73;1.63;;;30.40;83.70;;;;;;5093378;28;20228;-82
2023/06/24 08:29:52;;;;;;;1.35;1.10;;;31.00;82.00;;;;;;5093422;28;20200;-82
2023/06/24 08:32:19;;;;;;;2.95;1.30;;;31.30;78.80;;;;;;5093000;28;20202;-82
2023/06/24 08:34:46;;;;;;;1.35;1.25;;;31.30;76.90;;;;;;5093358;28;20204;-82
2023/06/24 08:37:14;;;;;;;1.63;1.52;;;30.80;77.30;;;;;;5093200;28;20230;-82
2023/06/24 08:39:41;;;;;;;1.15;1.05;;;30.60;76.20;;;;;;5096874;28;20204;-83
2023/06/24 08:42:08;;;;;;;1.38;1.27;;;30.10;73.90;;;;;;5097155;28;20663;-82
2023/06/24 08:44:35;;;;;;;1.58;1.48;;;29.60;73.90;;;;;;5097451;28;20203;-82
2023/06/24 08:47:02;;;;;;;1.70;1.30;;;29.30;73.50;;;;;;5097324;28;20197;-83
2023/06/24 08:49:31;;;;;;;0.90;0.90;;;29.10;73.20;;;;;;5097242;28;20197;-82
2023/06/24 08:52:03;;;;;;;0.90;0.90;;;28.90;74.30;;;;;;5097348;28;20201;-82
2023/06/24 08:54:33;;;;;;;1.33;1.20;;;28.90;74.60;;;;;;5097334;28;20638;-82
2023/06/24 08:57:01;;;;;;;1.65;1.40;;;29.00;75.00;;;;;;5097179;28;20211;-82
2023/06/24 08:59:28;;;;;;;1.30;1.20;;;29.50;73.70;;;;;;5097149;28;20218;-82
2023/06/24 09:01:55;;;;;;;1.38;1.27;;;29.80;72.20;;;;;;5097125;28;20213;-82
2023/06/24 09:04:21;;;;;;;0.85;0.85;;;29.90;73.00;;;;;;5097061;28;20207;-82
2023/06/24 09:06:49;;;;;;;1.67;1.27;;;29.60;69.60;;;;;;5097051;28;20201;-82
2023/06/24 09:09:20;;;;;;;2.38;1.30;;;29.20;67.40;;;;;;5096689;28;20678;-83
2023/06/24 09:11:54;;;;;;;4.10;1.00;;;29.00;68.80;;;;;;5097037;28;20279;-82
2023/06/24 09:14:21;;;;;;;1.02;0.88;;;28.60;70.10;;;;;;5096988;28;20192;-82
2023/06/24 09:16:52;;;;;;;0.98;0.90;;;28.30;69.00;;;;;;5096907;28;20225;-82
2023/06/24 09:19:22;;;;;;;1.25;0.80;;;28.10;70.00;;;;;;5096852;28;20204;-82
2023/06/24 09:21:48;;;;;;;1.30;1.20;;;27.70;70.00;;;;;;5096338;28;20778;-82
2023/06/24 09:24:15;;;;;;;1.88;1.10;;;27.40;71.50;;;;;;5096816;28;20213;-82
2023/06/24 09:26:45;;;;;;;1.75;1.00;;;27.10;72.50;;;;;;5096796;28;20202;-82
2023/06/24 09:29:14;;;;;;;1.13;1.02;;;27.20;73.50;;;;;;5096356;28;20266;-82
2023/06/24 09:31:48;;;;;;;1.50;0.90;;;27.30;74.00;;;;;;5096618;28;20197;-82
2023/06/24 09:34:16;;;;;;;1.38;1.27;;;27.30;71.60;;;;;;5096574;28;20200;-83
2023/06/24 09:36:44;;;;;;;1.02;0.88;;;27.20;70.60;;;;;;5096561;28;20201;-82
2023/06/24 09:39:11;;;;;;;1.73;1.45;;;27.20;71.60;;;;;;5096364;28;20229;-81
2023/06/24 09:41:41;;;;;;;1.67;1.33;;;27.30;72.20;;;;;;5096420;28;20224;-82
2023/06/24 09:44:11;;;;;;;0.90;0.90;;;27.20;71.70;;;;;;5096696;28;20209;-82
2023/06/24 09:46:39;;;;;;;1.10;1.00;;;27.30;72.40;;;;;;5096365;28;20224;-82
2023/06/24 09:49:06;;;;;;;1.25;1.20;;;27.40;73.70;;;;;;5096259;28;20221;-82
2023/06/24 09:51:37;;;;;;;1.35;1.17;;;27.50;72.20;;;;;;5095235;28;20673;-82
2023/06/24 09:54:06;;;;;;;1.40;1.20;;;27.50;71.00;;;;;;5096262;28;20201;-82
2023/06/24 09:56:36;;;;;;;1.27;1.17;;;27.50;71.70;;;;;;5096216;28;20197;-82
2023/06/24 09:59:05;;;;;;;2.53;0.95;;;27.50;70.10;;;;;;5095995;28;20217;-82
2023/06/24 10:01:33;;;;;;;1.27;1.08;;;27.40;69.10;;;;;;5096141;28;20284;-81
2023/06/24 10:04:02;;;;;;;1.00;1.00;;;27.40;67.60;;;;;;5095987;28;20695;-81
2023/06/24 10:06:29;;;;;;;1.63;1.17;;;27.40;69.10;;;;;;5111334;28;20197;-82
2023/06/24 10:08:56;;;;;;;1.85;1.10;;;27.50;67.10;;;;;;5108171;28;20214;-81
2023/06/24 10:11:23;;;;;;;1.20;1.10;;;27.40;68.00;;;;;;5095854;28;20201;-81
2023/06/24 10:13:50;;;;;;;1.35;0.90;;;27.50;68.90;;;;;;5095831;28;20212;-81
2023/06/24 10:16:17;;;;;;;2.28;1.75;;;27.50;67.90;;;;;;5095465;28;20204;-81
2023/06/24 10:18:45;;;;;;;3.47;1.40;;;27.10;68.60;;;;;;5095273;28;20229;-80
2023/06/24 10:21:15;;;;;;;1.90;0.95;;;26.80;70.60;;;;;;5095421;28;20244;-81
2023/06/24 10:23:52;;;;;;;1.02;0.88;;;26.70;71.40;;;;;;5095615;28;20185;-81
2023/06/24 10:26:24;;;;;;;1.17;1.17;;;27.00;72.30;;;;;;5095309;28;20196;-81
2023/06/24 10:29:12;;;;;;;1.63;1.48;;;27.10;72.60;;;;;;5095511;28;20272;-81
2023/06/24 10:32:01;;;;;;;1.10;1.10;;;27.10;70.80;;;;;;5095500;28;20205;-81
2023/06/24 10:34:33;;;;;;;1.25;1.15;;;27.10;68.80;;;;;;5095436;28;20189;-81
2023/06/24 10:37:03;;;;;;;1.40;1.30;;;27.10;70.30;;;;;;5094991;28;20209;-81
2023/06/24 10:39:37;;;;;;;1.05;1.00;;;27.20;72.10;;;;;;5095194;28;20224;-80
2023/06/24 10:42:32;;;;;;;1.10;1.00;;;27.50;71.40;;;;;;5095243;28;20216;-81
2023/06/24 10:45:01;;;;;;;1.08;1.00;;;27.80;70.50;;;;;;5095185;28;20208;-81
2023/06/24 10:47:29;;;;;;;1.33;1.23;;;28.10;70.70;;;;;;5095051;28;20231;-80
2023/06/24 10:49:56;;;;;;;1.50;1.40;;;28.40;69.10;;;;;;5095034;28;20197;-80
2023/06/24 10:52:25;;;;;;;2.00;1.25;;;28.60;67.20;;;;;;5094986;28;20209;-81
2023/06/24 10:54:52;;;;;;;1.92;1.38;;;28.60;64.10;;;;;;5094957;28;20212;-81
2023/06/24 10:57:24;;;;;;;0.90;0.90;;;28.40;63.90;;;;;;5094887;28;20218;-81
2023/06/24 10:59:52;;;;;;;1.20;1.10;;;28.40;63.80;;;;;;5094528;28;20202;-81
2023/06/24 11:02:20;;;;;;;1.20;1.10;;;28.40;63.40;;;;;;5093797;28;20211;-81
2023/06/24 11:04:48;;;;;;;1.05;0.95;;;28.90;64.40;;;;;;5094779;28;20215;-81
2023/06/24 11:07:18;;;;;;;1.20;1.13;;;29.30;62.20;;;;;;5094678;28;20351;-82
2023/06/24 11:09:51;;;;;;;0.90;0.90;;;29.10;62.00;;;;;;5094374;28;20208;-82
2023/06/24 11:12:18;;;;;;;1.10;0.85;;;28.80;61.90;;;;;;5094393;28;20241;-82
2023/06/24 11:14:45;;;;;;;0.70;0.70;;;28.60;64.10;;;;;;5094602;28;20209;-82
2023/06/24 11:17:12;;;;;;;1.52;1.42;;;28.60;64.40;;;;;;5094412;28;20222;-82
2023/06/24 11:19:40;;;;;;;4.47;1.00;;;28.10;63.00;;;;;;5094507;28;20569;-82
2023/06/24 11:22:08;;;;;;;1.25;1.00;;;27.90;63.40;;;;;;5094133;28;20232;-82
2023/06/24 11:24:35;;;;;;;1.42;1.08;;;27.50;63.10;;;;;;5094400;28;20212;-81
2023/06/24 11:27:05;;;;;;;2.20;1.00;;;27.20;64.10;;;;;;5094345;28;20205;-82
2023/06/24 11:29:33;;;;;;;1.13;0.98;;;27.00;64.10;;;;;;5094097;28;20224;-83
2023/06/24 11:32:01;;;;;;;1.27;1.00;;;27.00;63.80;;;;;;5094307;28;20228;-82
2023/06/24 11:34:28;;;;;;;1.27;1.17;;;27.00;64.90;;;;;;5094265;28;20202;-83
2023/06/24 11:36:55;;;;;;;1.55;1.08;;;27.00;64.80;;;;;;5093860;28;20578;-82
2023/06/24 11:39:23;;;;;;;1.27;1.05;;;27.20;63.70;;;;;;5093799;28;20217;-82
2023/06/24 11:41:50;;;;;;;1.27;0.98;;;27.40;62.40;;;;;;5094206;28;20232;-82
2023/06/24 11:44:20;;;;;;;1.35;1.10;;;27.40;63.50;;;;;;5093818;28;20657;-83
2023/06/24 11:46:47;;;;;;;1.20;1.08;;;27.40;63.60;;;;;;5094140;28;20229;-83
2023/06/24 11:49:14;;;;;;;1.23;1.13;;;27.30;63.50;;;;;;5093951;28;20236;-82
2023/06/24 11:51:48;;;;;;;2.25;1.00;;;27.20;64.40;;;;;;5093674;28;20206;-83
2023/06/24 11:54:16;;;;;;;1.30;1.20;;;27.10;63.20;;;;;;5094038;28;20189;-82
2023/06/24 11:56:44;;;;;;;0.82;0.82;;;27.00;63.40;;;;;;5093597;28;20692;-82
2023/06/24 11:59:18;;;;;;;1.02;0.90;;;26.90;64.10;;;;;;5093671;28;20226;-82
2023/06/24 12:01:46;;;;;;;1.75;1.25;;;27.00;64.90;;;;;;5093858;28;20185;-82
2023/06/24 12:04:13;;;;;;;1.45;1.35;;;27.00;63.50;;;;;;5093783;28;20201;-83
2023/06/24 12:06:41;;;;;;;0.80;0.75;;;27.00;62.30;;;;;;5093763;28;20205;-82
2023/06/24 12:09:08;;;;;;;2.13;1.25;;;27.00;63.40;;;;;;5093642;28;20278;-82
2023/06/24 12:11:34;;;;;;;1.80;1.20;;;26.90;64.20;;;;;;5093652;28;20216;-82
2023/06/24 12:14:01;;;;;;;1.13;1.13;;;26.90;62.70;;;;;;5093248;28;20224;-82
2023/06/24 12:16:28;;;;;;;1.50;0.93;;;26.70;62.70;;;;;;5093616;28;20209;-81
2023/06/24 12:18:56;;;;;;;1.45;1.35;;;26.70;64.20;;;;;;5093453;28;20236;-82
2023/06/24 12:21:23;;;;;;;1.08;1.00;;;26.70;62.00;;;;;;5093225;28;20237;-82
2023/06/24 12:23:51;;;;;;;1.02;0.90;;;26.60;63.00;;;;;;5093543;28;20212;-82
2023/06/24 12:26:17;;;;;;;1.00;0.90;;;26.50;63.30;;;;;;5093538;28;20197;-81
2023/06/24 12:28:44;;;;;;;1.17;1.17;;;26.40;63.30;;;;;;5093433;28;20221;-81
2023/06/24 12:31:12;;;;;;;1.30;1.20;;;26.20;62.90;;;;;;5093508;28;20201;-79
2023/06/24 12:33:38;;;;;;;1.20;1.00;;;26.00;63.30;;;;;;5093470;28;20212;-81
2023/06/24 12:36:07;;;;;;;0.82;0.82;;;26.00;64.20;;;;;;5093447;28;20209;-79
2023/06/24 12:38:35;;;;;;;1.20;1.10;;;25.90;64.00;;;;;;5093260;28;20217;-81
2023/06/24 12:41:02;;;;;;;1.20;1.10;;;25.90;63.00;;;;;;5093406;28;20197;-81
2023/06/24 12:43:28;;;;;;;1.85;1.33;;;25.90;64.30;;;;;;5093348;28;20203;-81
2023/06/24 12:45:55;;;;;;;1.13;1.00;;;25.80;62.80;;;;;;5093088;28;20676;-81
2023/06/24 12:48:22;;;;;;;1.00;1.00;;;25.70;63.10;;;;;;5093249;28;20225;-81
2023/06/24 12:50:52;;;;;;;1.00;1.00;;;25.70;63.90;;;;;;5093330;28;20197;-81
2023/06/24 12:53:21;;;;;;;1.20;1.08;;;25.70;64.30;;;;;;5093015;28;20600;-81